createdAt,value
2018-08-24T00:01:55.551Z,8.80
2018-08-24T00:04:23.818Z,8.30
2018-08-24T00:06:52.212Z,7.97
2018-08-24T00:09:23.364Z,8.08
2018-08-24T00:11:51.482Z,7.70
2018-08-24T00:14:19.887Z,7.70
2018-08-24T00:16:48.405Z,8.08
2018-08-24T00:19:17.230Z,7.80
2018-08-24T00:21:46.244Z,7.95
2018-08-24T00:24:15.195Z,7.80
2018-08-24T00:26:43.626Z,7.70
2018-08-24T00:29:15.306Z,7.45
2018-08-24T00:31:43.716Z,7.67
2018-08-24T00:34:12.177Z,8.40
2018-08-24T00:36:40.474Z,8.00
2018-08-24T00:39:09.318Z,7.50
2018-08-24T00:41:37.573Z,7.62
2018-08-24T00:44:06.173Z,7.70
2018-08-24T00:46:34.700Z,7.10
2018-08-24T00:49:02.999Z,7.70
2018-08-24T00:51:31.487Z,7.60
2018-08-24T00:54:04.507Z,7.70
2018-08-24T00:56:32.910Z,6.95
2018-08-24T00:59:01.299Z,6.70
2018-08-24T01:01:29.606Z,7.55
2018-08-24T01:03:57.879Z,8.15
2018-08-24T01:06:26.508Z,7.72
2018-08-24T01:08:54.997Z,7.60
2018-08-24T01:11:28.574Z,6.95
2018-08-24T01:13:56.877Z,7.33
2018-08-24T01:16:32.826Z,7.30
2018-08-24T01:19:03.856Z,7.10
2018-08-24T01:21:32.221Z,7.60
2018-08-24T01:24:00.634Z,7.00
2018-08-24T01:26:29.252Z,8.18
2018-08-24T01:28:57.755Z,7.28
2018-08-24T01:31:26.159Z,7.40
2018-08-24T01:33:54.451Z,7.30
2018-08-24T01:36:22.743Z,7.47
2018-08-24T01:38:51.129Z,7.92
2018-08-24T01:41:19.431Z,7.72
2018-08-24T01:43:48.559Z,7.40
2018-08-24T01:46:17.066Z,8.28
2018-08-24T01:48:45.569Z,8.10
2018-08-24T01:51:13.838Z,8.10
2018-08-24T01:53:42.242Z,7.95
2018-08-24T01:56:11.832Z,8.60
2018-08-24T01:58:40.166Z,8.30
2018-08-24T02:01:08.386Z,8.23
2018-08-24T02:03:36.662Z,8.15
2018-08-24T02:06:07.454Z,8.38
2018-08-24T02:08:36.481Z,8.60
2018-08-24T02:11:11.449Z,8.70
2018-08-24T02:13:46.737Z,8.30
2018-08-24T02:16:15.067Z,8.40
2018-08-24T02:18:48.772Z,8.23
2018-08-24T02:21:22.801Z,9.20
2018-08-24T02:23:51.080Z,9.10
2018-08-24T02:26:19.489Z,8.95
2018-08-24T02:28:47.865Z,9.30
2018-08-24T02:31:16.356Z,8.93
2018-08-24T02:33:44.799Z,8.95
2018-08-24T02:36:13.053Z,9.18
2018-08-24T02:38:44.759Z,8.70
2018-08-24T02:41:13.226Z,8.90
2018-08-24T02:43:41.646Z,9.40
2018-08-24T02:46:10.234Z,8.88
2018-08-24T02:48:38.750Z,10.82
2018-08-24T02:51:07.468Z,9.48
2018-08-24T02:53:35.881Z,9.28
2018-08-24T02:56:04.468Z,8.98
2018-08-24T02:58:33.060Z,9.80
2018-08-24T03:01:01.680Z,9.50
2018-08-24T03:03:29.971Z,8.70
2018-08-24T03:05:58.372Z,9.10
2018-08-24T03:08:26.836Z,8.55
2018-08-24T03:10:55.056Z,9.25
2018-08-24T03:13:23.375Z,9.60
2018-08-24T03:15:51.871Z,9.43
2018-08-24T03:18:20.177Z,9.40
2018-08-24T03:20:52.213Z,10.00
2018-08-24T03:23:20.623Z,9.70
2018-08-24T03:25:49.743Z,10.33
2018-08-24T03:28:18.775Z,10.38
2018-08-24T03:30:47.161Z,10.40
2018-08-24T03:33:15.595Z,9.65
2018-08-24T03:35:44.046Z,9.33
2018-08-24T03:38:16.044Z,10.30
2018-08-24T03:40:44.447Z,10.03
2018-08-24T03:43:13.358Z,10.23
2018-08-24T03:45:41.775Z,10.70
2018-08-24T03:48:11.291Z,9.50
2018-08-24T03:50:39.696Z,9.88
2018-08-24T03:53:08.212Z,9.78
2018-08-24T03:55:38.588Z,9.55
2018-08-24T03:58:07.651Z,9.25
2018-08-24T04:00:36.024Z,9.95
2018-08-24T04:03:04.338Z,10.58
2018-08-24T04:05:33.062Z,10.32
2018-08-24T04:08:01.406Z,10.95
2018-08-24T04:10:29.861Z,11.30
2018-08-24T04:12:58.382Z,15.18
2018-08-24T04:15:26.753Z,10.30
2018-08-24T04:17:55.281Z,10.43
2018-08-24T04:20:23.670Z,11.30
2018-08-24T04:22:52.046Z,12.63
2018-08-24T04:25:20.458Z,10.40
2018-08-24T04:27:48.864Z,12.37
2018-08-24T04:30:17.230Z,11.12
2018-08-24T04:32:45.662Z,10.23
2018-08-24T04:35:17.336Z,10.60
2018-08-24T04:37:45.608Z,10.70
2018-08-24T04:40:14.139Z,12.37
2018-08-24T04:42:42.449Z,9.95
2018-08-24T04:45:14.934Z,12.18
2018-08-24T04:47:43.461Z,10.90
2018-08-24T04:50:12.720Z,10.08
2018-08-24T04:52:41.251Z,8.63
2018-08-24T04:55:09.651Z,8.20
2018-08-24T04:57:38.121Z,8.80
2018-08-24T05:00:08.037Z,7.87
2018-08-24T05:02:39.940Z,8.55
2018-08-24T05:05:08.770Z,8.30
2018-08-24T05:07:37.061Z,7.10
2018-08-24T05:10:08.944Z,7.78
2018-08-24T05:12:37.852Z,8.45
2018-08-24T05:15:06.542Z,7.25
2018-08-24T05:17:34.942Z,7.60
2018-08-24T05:20:03.462Z,6.80
2018-08-24T05:22:31.656Z,7.00
2018-08-24T05:25:00.057Z,7.03
2018-08-24T05:27:28.610Z,6.95
2018-08-24T05:29:58.982Z,7.65
2018-08-24T05:32:27.398Z,7.78
2018-08-24T05:34:55.800Z,9.03
2018-08-24T05:37:24.293Z,8.88
2018-08-24T05:39:52.621Z,9.93
2018-08-24T05:42:21.085Z,6.62
2018-08-24T05:44:49.419Z,7.40
2018-08-24T05:47:17.824Z,6.75
2018-08-24T05:49:46.616Z,6.85
2018-08-24T05:52:14.897Z,6.62
2018-08-24T05:54:43.397Z,6.50
2018-08-24T05:57:11.589Z,6.97
2018-08-24T05:59:40.523Z,7.62
2018-08-24T06:02:08.801Z,7.00
2018-08-24T06:04:37.301Z,7.30
2018-08-24T06:07:05.705Z,7.60
2018-08-24T06:09:37.907Z,7.58
2018-08-24T06:12:06.389Z,8.45
2018-08-24T06:14:34.717Z,8.63
2018-08-24T06:17:08.571Z,6.62
2018-08-24T06:19:37.054Z,6.90
2018-08-24T06:22:05.519Z,7.15
2018-08-24T06:24:36.190Z,7.47
2018-08-24T06:27:04.677Z,7.60
2018-08-24T06:29:32.976Z,8.30
2018-08-24T06:32:01.596Z,8.95
2018-08-24T06:34:30.286Z,7.30
2018-08-24T06:36:58.707Z,6.40
2018-08-24T06:39:27.113Z,6.75
2018-08-24T06:41:55.798Z,6.22
2018-08-24T06:44:24.193Z,6.10
2018-08-24T06:46:52.372Z,6.00
2018-08-24T06:49:20.566Z,5.83
2018-08-24T06:51:48.888Z,5.75
2018-08-24T06:54:17.483Z,5.80
2018-08-24T06:56:45.882Z,6.10
2018-08-24T06:59:14.156Z,5.60
2018-08-24T07:01:42.956Z,5.60
2018-08-24T07:04:11.478Z,5.70
2018-08-24T07:06:40.082Z,5.10
2018-08-24T07:09:09.028Z,5.87
2018-08-24T07:11:37.508Z,5.00
2018-08-24T07:14:05.997Z,5.15
2018-08-24T07:16:34.714Z,4.50
2018-08-24T07:19:03.138Z,4.50
2018-08-24T07:21:31.411Z,4.10
2018-08-24T07:23:59.914Z,3.90
2018-08-24T07:26:28.315Z,4.10
2018-08-24T07:28:56.594Z,4.53
2018-08-24T07:31:25.013Z,4.00
2018-08-24T07:33:53.415Z,4.30
2018-08-24T07:36:21.928Z,4.10
2018-08-24T07:38:50.621Z,3.90
2018-08-24T07:41:19.081Z,3.90
2018-08-24T07:43:47.631Z,3.60
2018-08-24T07:46:15.936Z,3.60
2018-08-24T07:48:44.322Z,4.10
2018-08-24T07:51:12.842Z,3.70
2018-08-24T07:53:41.216Z,4.00
2018-08-24T07:56:09.520Z,3.70
2018-08-24T07:58:38.027Z,3.90
2018-08-24T08:01:06.540Z,4.50
2018-08-24T08:03:35.028Z,4.10
2018-08-24T08:06:03.614Z,4.00
2018-08-24T08:08:32.108Z,4.50
2018-08-24T08:11:00.403Z,4.35
2018-08-24T08:13:28.838Z,4.15
2018-08-24T08:15:59.363Z,4.27
2018-08-24T08:18:27.930Z,4.78
2018-08-24T08:20:56.273Z,4.50
2018-08-24T08:23:24.677Z,4.22
2018-08-24T08:25:52.957Z,5.03
2018-08-24T08:28:21.215Z,4.80
2018-08-24T08:30:49.347Z,4.90
2018-08-24T08:33:17.669Z,4.90
2018-08-24T08:35:46.062Z,4.50
2018-08-24T08:38:14.442Z,5.10
2018-08-24T08:40:42.754Z,5.25
2018-08-24T08:43:11.359Z,4.85
2018-08-24T08:45:40.538Z,6.47
2018-08-24T08:48:09.088Z,5.65
2018-08-24T08:50:37.798Z,5.00
2018-08-24T08:53:06.448Z,5.53
2018-08-24T08:55:34.679Z,5.20
2018-08-24T08:58:03.400Z,5.70
2018-08-24T09:00:31.794Z,5.10
2018-08-24T09:03:00.196Z,5.28
2018-08-24T09:05:28.460Z,5.53
2018-08-24T09:07:56.921Z,5.60
2018-08-24T09:10:25.289Z,5.97
2018-08-24T09:12:53.836Z,5.80
2018-08-24T09:15:22.192Z,6.95
2018-08-24T09:17:55.889Z,6.20
2018-08-24T09:20:29.817Z,5.80
2018-08-24T09:23:03.527Z,5.90
2018-08-24T09:25:37.207Z,5.40
2018-08-24T09:28:11.509Z,7.08
2018-08-24T09:30:46.458Z,5.60
2018-08-24T09:33:14.857Z,6.90
2018-08-24T09:35:45.500Z,5.92
2018-08-24T09:38:13.905Z,8.00
2018-08-24T09:40:47.706Z,6.10
2018-08-24T09:43:21.375Z,6.60
2018-08-24T09:45:49.608Z,5.90
2018-08-24T09:48:23.302Z,6.50
2018-08-24T09:50:57.297Z,6.28
2018-08-24T09:53:31.092Z,5.40
2018-08-24T09:55:59.596Z,6.00
2018-08-24T09:58:28.547Z,6.15
2018-08-24T10:01:02.479Z,6.40
2018-08-24T10:03:36.308Z,5.90
2018-08-24T10:06:10.422Z,6.00
2018-08-24T10:08:43.965Z,6.23
2018-08-24T10:11:12.364Z,6.10
2018-08-24T10:13:40.897Z,6.20
2018-08-24T10:16:09.603Z,6.53
2018-08-24T10:18:37.794Z,6.80
2018-08-24T10:21:06.282Z,6.30
2018-08-24T10:23:34.858Z,6.67
2018-08-24T10:26:03.511Z,6.50
2018-08-24T10:28:32.084Z,6.20
2018-08-24T10:31:00.615Z,6.28
2018-08-24T10:33:29.007Z,6.70
2018-08-24T10:35:57.516Z,6.70
2018-08-24T10:38:28.156Z,7.78
2018-08-24T10:40:56.594Z,11.40
2018-08-24T10:43:25.176Z,10.00
2018-08-24T10:45:53.654Z,9.40
2018-08-24T10:48:21.871Z,10.43
2018-08-24T10:50:50.170Z,9.33
2018-08-24T10:53:18.667Z,10.58
2018-08-24T10:55:52.953Z,9.65
2018-08-24T10:58:21.310Z,10.00
2018-08-24T11:00:49.803Z,8.83
2018-08-24T11:03:18.403Z,9.33
2018-08-24T11:05:50.193Z,8.30
2018-08-24T11:08:18.366Z,8.48
2018-08-24T11:10:46.450Z,7.65
2018-08-24T11:13:14.748Z,7.53
2018-08-24T11:15:48.092Z,7.70
2018-08-24T11:18:16.676Z,8.13
2018-08-24T11:20:45.083Z,7.72
2018-08-24T11:23:13.574Z,8.05
2018-08-24T11:25:42.648Z,8.40
2018-08-24T11:28:11.202Z,7.50
2018-08-24T11:30:39.587Z,8.13
2018-08-24T11:33:08.106Z,7.97
2018-08-24T11:35:37.528Z,6.70
2018-08-24T11:38:05.928Z,6.62
2018-08-24T11:40:34.228Z,6.75
2018-08-24T11:43:02.485Z,5.85
2018-08-24T11:45:35.218Z,7.05
2018-08-24T11:48:03.696Z,6.65
2018-08-24T11:50:31.982Z,6.50
2018-08-24T11:53:00.533Z,6.35
2018-08-24T11:55:29.119Z,6.55
2018-08-24T11:57:57.827Z,6.85
2018-08-24T12:00:34.472Z,6.15
2018-08-24T12:03:03.523Z,8.13
2018-08-24T12:05:32.078Z,7.20
2018-08-24T12:08:00.777Z,6.20
2018-08-24T12:10:28.907Z,6.10
2018-08-24T12:12:57.730Z,5.62
2018-08-24T12:15:26.341Z,6.95
2018-08-24T12:18:00.041Z,5.42
2018-08-24T12:20:28.608Z,5.92
2018-08-24T12:22:57.057Z,5.70
2018-08-24T12:25:25.446Z,5.47
2018-08-24T12:27:53.933Z,5.17
2018-08-24T12:30:22.472Z,5.23
2018-08-24T12:32:50.930Z,5.30
2018-08-24T12:35:19.672Z,5.00
2018-08-24T12:37:52.175Z,5.00
2018-08-24T12:40:20.467Z,5.00
2018-08-24T12:42:48.857Z,5.70
2018-08-24T12:45:17.394Z,5.62
2018-08-24T12:47:45.744Z,5.00
2018-08-24T12:50:14.070Z,5.55
2018-08-24T12:52:42.740Z,5.00
2018-08-24T12:55:11.291Z,5.30
2018-08-24T12:57:40.381Z,5.35
2018-08-24T13:00:10.801Z,5.40
2018-08-24T13:02:39.324Z,6.00
2018-08-24T13:05:49.511Z,5.20
2018-08-24T13:08:18.061Z,6.30
2018-08-24T13:10:46.473Z,4.70
2018-08-24T13:13:14.836Z,5.55
2018-08-24T13:15:43.023Z,4.80
2018-08-24T13:18:11.440Z,5.75
2018-08-24T13:20:39.740Z,4.03
2018-08-24T13:23:08.437Z,5.15
2018-08-24T13:25:36.732Z,4.25
2018-08-24T13:28:05.152Z,4.30
2018-08-24T13:30:33.680Z,4.70
2018-08-24T13:33:01.952Z,4.87
2018-08-24T13:35:30.330Z,4.72
2018-08-24T13:37:58.759Z,4.87
2018-08-24T13:40:27.223Z,3.83
2018-08-24T13:42:56.164Z,4.40
2018-08-24T13:45:24.799Z,3.90
2018-08-24T13:47:53.018Z,4.25
2018-08-24T13:50:21.485Z,4.65
2018-08-24T13:52:49.638Z,3.70
2018-08-24T13:55:18.169Z,3.93
2018-08-24T13:57:46.570Z,4.22
2018-08-24T14:00:15.272Z,4.00
2018-08-24T14:02:43.762Z,3.50
2018-08-24T14:05:12.119Z,3.50
2018-08-24T14:07:40.358Z,4.40
2018-08-24T14:10:08.883Z,3.60
2018-08-24T14:12:37.382Z,3.57
2018-08-24T14:15:05.795Z,4.17
2018-08-24T14:17:33.956Z,3.60
2018-08-24T14:20:06.844Z,4.30
2018-08-24T14:22:35.371Z,3.42
2018-08-24T14:25:03.973Z,3.37
2018-08-24T14:27:32.490Z,4.10
2018-08-24T14:30:01.086Z,3.83
2018-08-24T14:32:29.558Z,4.80
2018-08-24T14:34:58.080Z,3.70
2018-08-24T14:37:26.505Z,4.30
2018-08-24T14:39:58.474Z,4.85
2018-08-24T14:42:26.863Z,3.80
2018-08-24T14:44:55.143Z,4.53
2018-08-24T14:47:23.635Z,4.42
2018-08-24T14:49:51.815Z,5.70
2018-08-24T14:52:20.740Z,5.37
2018-08-24T14:54:49.301Z,5.10
2018-08-24T14:57:17.833Z,5.78
2018-08-24T14:59:47.243Z,5.30
2018-08-24T15:02:15.788Z,7.35
2018-08-24T15:04:44.295Z,5.22
2018-08-24T15:07:12.692Z,5.00
2018-08-24T15:09:50.969Z,5.42
2018-08-24T15:12:19.422Z,5.65
2018-08-24T15:14:48.127Z,7.00
2018-08-24T15:17:16.510Z,5.67
2018-08-24T15:19:44.796Z,5.47
2018-08-24T15:22:13.216Z,7.10
2018-08-24T15:24:41.619Z,6.00
2018-08-24T15:27:10.026Z,6.72
2018-08-24T15:29:38.532Z,6.87
2018-08-24T15:32:07.003Z,5.33
2018-08-24T15:34:40.631Z,5.55
2018-08-24T15:37:09.024Z,7.40
2018-08-24T15:39:37.329Z,5.78
2018-08-24T15:42:06.154Z,7.47
2018-08-24T15:44:39.345Z,6.20
2018-08-24T15:47:07.864Z,9.00
2018-08-24T15:49:36.984Z,5.42
2018-08-24T15:52:05.598Z,6.58
2018-08-24T15:54:34.535Z,6.62
2018-08-24T15:57:02.716Z,7.20
2018-08-24T15:59:30.968Z,6.83
2018-08-24T16:01:59.364Z,7.90
2018-08-24T16:04:27.676Z,7.42
2018-08-24T16:06:56.060Z,8.23
2018-08-24T16:09:24.489Z,6.55
2018-08-24T16:11:52.953Z,7.17
2018-08-24T16:14:21.485Z,9.88
2018-08-24T16:16:49.989Z,7.95
2018-08-24T16:19:18.486Z,7.10
2018-08-24T16:21:53.991Z,8.10
2018-08-24T16:24:22.227Z,7.40
2018-08-24T16:26:50.433Z,6.60
2018-08-24T16:29:19.138Z,7.92
2018-08-24T16:31:49.781Z,5.17
2018-08-24T16:34:18.293Z,5.50
2018-08-24T16:36:46.742Z,5.28
2018-08-24T16:39:15.399Z,5.77
2018-08-24T16:41:43.898Z,6.70
2018-08-24T16:44:12.280Z,6.67
2018-08-24T16:46:40.708Z,5.87
2018-08-24T16:49:09.648Z,5.87
2018-08-24T16:51:37.908Z,6.83
2018-08-24T16:54:06.089Z,10.55
2018-08-24T16:56:35.516Z,7.17
2018-08-24T16:59:03.918Z,6.20
2018-08-24T17:01:32.304Z,4.70
2018-08-24T17:04:00.548Z,4.47
2018-08-24T17:06:29.019Z,5.78
2018-08-24T17:08:58.626Z,6.87
2018-08-24T17:11:27.075Z,5.50
2018-08-24T17:14:04.671Z,6.17
2018-08-24T17:16:34.433Z,5.50
2018-08-24T17:19:03.073Z,5.50
2018-08-24T17:21:33.653Z,6.20
2018-08-24T17:24:02.239Z,7.10
2018-08-24T17:26:30.527Z,7.47
2018-08-24T17:29:17.992Z,6.13
2018-08-24T17:31:46.471Z,5.53
2018-08-24T17:34:14.743Z,4.92
2018-08-24T17:36:43.162Z,6.72
2018-08-24T17:39:12.208Z,11.53
2018-08-24T17:41:40.480Z,7.08
2018-08-24T17:44:08.878Z,5.35
2018-08-24T17:46:37.579Z,5.42
2018-08-24T17:49:06.121Z,5.90
2018-08-24T17:51:34.589Z,6.13
2018-08-24T17:54:03.074Z,5.67
2018-08-24T17:56:31.689Z,7.87
2018-08-24T17:59:00.065Z,6.20
2018-08-24T18:01:28.701Z,4.92
2018-08-24T18:03:57.195Z,5.40
2018-08-24T18:06:25.633Z,5.25
2018-08-24T18:08:54.093Z,5.72
2018-08-24T18:11:22.391Z,4.72
2018-08-24T18:13:50.775Z,4.42
2018-08-24T18:16:19.180Z,5.75
2018-08-24T18:18:47.720Z,4.60
2018-08-24T18:21:16.180Z,5.62
2018-08-24T18:23:44.499Z,5.17
2018-08-24T18:26:12.898Z,4.92
2018-08-24T18:28:41.506Z,5.23
2018-08-24T18:31:09.909Z,4.65
2018-08-24T18:33:38.605Z,4.78
2018-08-24T18:36:09.277Z,5.25
2018-08-24T18:38:38.432Z,5.97
2018-08-24T18:41:07.893Z,5.67
2018-08-24T18:43:36.293Z,5.90
2018-08-24T18:46:04.813Z,7.42
2018-08-24T18:48:33.145Z,8.15
2018-08-24T18:51:01.594Z,8.28
2018-08-24T18:53:29.899Z,7.00
2018-08-24T18:55:58.497Z,6.07
2018-08-24T18:58:26.889Z,5.53
2018-08-24T19:00:55.485Z,7.08
2018-08-24T19:03:24.004Z,6.25
2018-08-24T19:05:52.287Z,6.28
2018-08-24T19:08:21.613Z,5.45
2018-08-24T19:10:55.216Z,7.35
2018-08-24T19:13:23.501Z,6.33
2018-08-24T19:15:51.724Z,6.13
2018-08-24T19:18:25.291Z,5.05
2018-08-24T19:20:59.063Z,6.58
2018-08-24T19:23:27.451Z,7.25
2018-08-24T19:25:55.846Z,5.22
2018-08-24T19:28:29.787Z,6.70
2018-08-24T19:30:58.078Z,6.83
2018-08-24T19:33:26.788Z,6.53
2018-08-24T19:35:55.225Z,7.10
2018-08-24T19:38:23.584Z,6.85
2018-08-24T19:40:57.408Z,7.08
2018-08-24T19:43:26.040Z,5.50
2018-08-24T19:45:54.395Z,5.78
2018-08-24T19:48:28.156Z,6.60
2018-08-24T19:50:56.513Z,7.03
2018-08-24T19:53:24.934Z,5.80
2018-08-24T19:55:53.433Z,5.92
2018-08-24T19:59:30.253Z,6.78
2018-08-24T20:01:58.458Z,5.80
2018-08-24T20:04:26.964Z,7.00
2018-08-24T20:07:00.801Z,5.87
2018-08-24T20:09:34.690Z,7.57
2018-08-24T20:12:03.152Z,6.92
2018-08-24T20:14:37.118Z,6.80
2018-08-24T20:17:10.983Z,6.70
2018-08-24T20:19:39.436Z,6.58
2018-08-24T20:22:09.081Z,6.75
2018-08-24T20:24:37.659Z,6.30
2018-08-24T20:27:05.834Z,7.93
2018-08-24T20:29:34.349Z,7.15
2018-08-24T20:32:02.986Z,5.65
2018-08-24T20:34:31.484Z,8.10
2018-08-24T20:36:59.879Z,7.87
2018-08-24T20:39:28.373Z,8.30
2018-08-24T20:41:56.901Z,7.25
2018-08-24T20:44:25.255Z,6.83
2018-08-24T20:46:53.779Z,6.70
2018-08-24T20:49:22.180Z,7.45
2018-08-24T20:51:50.455Z,7.42
2018-08-24T20:54:18.879Z,7.62
2018-08-24T20:56:47.299Z,7.33
2018-08-24T20:59:15.879Z,7.33
2018-08-24T21:01:44.179Z,7.33
2018-08-24T21:04:12.724Z,8.00
2018-08-24T21:06:41.066Z,8.73
2018-08-24T21:09:10.149Z,7.50
2018-08-24T21:11:38.578Z,7.70
2018-08-24T21:14:07.105Z,8.48
2018-08-24T21:16:35.490Z,9.00
2018-08-24T21:19:03.913Z,7.85
2018-08-24T21:21:32.208Z,8.43
2018-08-24T21:24:00.584Z,8.47
2018-08-24T21:26:28.753Z,9.45
2018-08-24T21:28:57.173Z,8.25
2018-08-24T21:31:25.598Z,7.97
2018-08-24T21:33:54.008Z,8.60
2018-08-24T21:36:22.268Z,7.25
2018-08-24T21:38:50.576Z,8.60
2018-08-24T21:41:18.879Z,8.53
2018-08-24T21:43:48.399Z,7.83
2018-08-24T21:46:16.839Z,8.30
2018-08-24T21:48:45.182Z,7.53
2018-08-24T21:51:13.483Z,7.58
2018-08-24T21:53:42.697Z,7.03
2018-08-24T21:56:11.861Z,8.78
2018-08-24T21:58:41.017Z,8.28
2018-08-24T22:01:10.783Z,9.18
2018-08-24T22:03:39.575Z,9.47
2018-08-24T22:06:08.718Z,9.60
2018-08-24T22:08:37.738Z,8.70
2018-08-24T22:11:07.320Z,7.53
2018-08-24T22:13:36.030Z,7.47
2018-08-24T22:16:04.529Z,8.20
2018-08-24T22:18:33.574Z,7.10
2018-08-24T22:21:02.298Z,6.78
2018-08-24T22:23:31.715Z,6.72
2018-08-24T22:26:00.821Z,6.45
2018-08-24T22:28:29.707Z,7.50
2018-08-24T22:30:58.628Z,6.95
2018-08-24T22:33:28.159Z,6.90
2018-08-24T22:35:56.927Z,7.05
2018-08-24T22:38:25.589Z,7.12
2018-08-24T22:40:54.867Z,9.00
2018-08-24T22:43:29.456Z,8.50
2018-08-24T22:45:59.081Z,8.30
2018-08-24T22:48:28.144Z,7.10
2018-08-24T22:51:02.912Z,8.53
2018-08-24T22:53:31.722Z,9.10
2018-08-24T22:56:00.414Z,9.15
2018-08-24T22:58:29.477Z,8.98
2018-08-24T23:01:00.514Z,10.03
2018-08-24T23:03:29.540Z,10.65
2018-08-24T23:05:58.399Z,10.72
2018-08-24T23:08:28.263Z,10.78
2018-08-24T23:10:57.881Z,9.83
2018-08-24T23:13:27.149Z,9.73
2018-08-24T23:15:56.085Z,10.20
2018-08-24T23:18:24.805Z,9.83
2018-08-24T23:20:57.041Z,10.53
2018-08-24T23:23:26.549Z,9.55
2018-08-24T23:25:56.048Z,10.30
2018-08-24T23:28:25.544Z,11.05
2018-08-24T23:31:02.496Z,10.48
2018-08-24T23:33:31.174Z,10.67
2018-08-24T23:35:59.852Z,13.20
2018-08-24T23:38:29.507Z,13.00
2018-08-24T23:40:58.704Z,11.08
2018-08-24T23:43:27.986Z,14.45
2018-08-24T23:45:56.846Z,13.05
2018-08-24T23:48:30.518Z,12.18
2018-08-24T23:51:00.241Z,14.23
2018-08-24T23:53:29.678Z,14.45
2018-08-24T23:58:54.451Z,14.25
